createdAt,value
2023-07-15T00:00:15.356Z,99849.00
2023-07-15T00:02:46.082Z,99849.20
2023-07-15T00:05:36.413Z,99854.00
2023-07-15T00:08:04.997Z,99855.05
2023-07-15T00:10:34.701Z,99854.23
2023-07-15T00:13:03.079Z,99854.84
2023-07-15T00:15:30.709Z,99857.11
2023-07-15T00:17:58.785Z,99857.20
2023-07-15T00:20:26.467Z,99858.96
2023-07-15T00:22:54.229Z,99861.41
2023-07-15T00:25:22.129Z,99862.98
2023-07-15T00:27:49.905Z,99862.35
2023-07-15T00:30:18.607Z,99862.81
2023-07-15T00:32:48.546Z,99863.08
2023-07-15T00:35:22.205Z,99863.84
2023-07-15T00:37:49.972Z,99863.20
2023-07-15T00:40:18.998Z,99867.25
2023-07-15T00:43:24.064Z,99865.54
2023-07-15T00:46:15.190Z,99868.34
2023-07-15T00:48:46.965Z,99869.13
2023-07-15T00:51:14.835Z,99870.85
2023-07-15T00:53:42.505Z,99871.86
2023-07-15T00:56:10.991Z,99872.59
2023-07-15T00:58:38.766Z,99877.42
2023-07-15T01:01:07.553Z,99878.37
2023-07-15T01:03:35.400Z,99880.38
2023-07-15T01:06:03.469Z,99883.67
2023-07-15T01:08:31.217Z,99886.47
2023-07-15T01:10:59.712Z,99886.52
2023-07-15T01:13:27.659Z,99889.17
2023-07-15T01:15:55.425Z,99890.29
2023-07-15T01:18:23.258Z,99892.05
2023-07-15T01:20:54.274Z,99896.14
2023-07-15T01:23:22.213Z,99893.30
2023-07-15T01:25:49.974Z,99895.78
2023-07-15T01:28:17.669Z,99897.41
2023-07-15T01:30:45.347Z,99897.35
2023-07-15T01:33:16.384Z,99901.95
2023-07-15T01:35:49.221Z,99904.96
2023-07-15T01:38:17.092Z,99903.60
2023-07-15T01:40:46.382Z,99903.00
2023-07-15T01:43:14.576Z,99903.73
2023-07-15T01:45:42.309Z,99900.56
2023-07-15T01:48:10.192Z,99901.27
2023-07-15T01:50:37.926Z,99900.30
2023-07-15T01:53:06.200Z,99904.66
2023-07-15T01:55:34.006Z,99908.20
2023-07-15T01:58:02.785Z,99915.16
2023-07-15T02:00:30.881Z,99919.54
2023-07-15T02:02:58.773Z,99921.77
2023-07-15T02:05:26.901Z,99925.88
2023-07-15T02:07:56.321Z,99932.77
2023-07-15T02:10:24.740Z,99930.38
2023-07-15T02:12:52.468Z,99930.70
2023-07-15T02:15:20.298Z,99929.92
2023-07-15T02:17:48.229Z,99928.55
2023-07-15T02:20:17.064Z,99928.86
2023-07-15T02:22:44.920Z,99924.93
2023-07-15T02:25:12.908Z,99925.05
2023-07-15T02:27:40.650Z,99927.74
2023-07-15T02:30:10.417Z,99931.75
2023-07-15T02:32:40.789Z,99931.68
2023-07-15T02:35:10.506Z,99935.45
2023-07-15T02:37:39.429Z,99938.79
2023-07-15T02:40:08.012Z,99940.03
2023-07-15T02:42:35.673Z,99944.73
2023-07-15T02:45:07.353Z,99953.09
2023-07-15T02:47:35.485Z,99953.54
2023-07-15T02:50:07.852Z,99953.70
2023-07-15T02:52:37.108Z,99953.99
2023-07-15T02:55:05.770Z,99954.49
2023-07-15T02:57:34.179Z,99953.72
2023-07-15T03:00:02.034Z,99951.34
2023-07-15T03:02:30.948Z,99949.20
2023-07-15T03:04:58.832Z,99947.80
2023-07-15T03:07:26.556Z,99951.56
2023-07-15T03:09:54.241Z,99945.90
2023-07-15T03:12:23.056Z,99946.93
2023-07-15T03:14:50.816Z,99945.61
2023-07-15T03:17:19.252Z,99946.28
2023-07-15T03:19:46.934Z,99948.93
2023-07-15T03:22:14.686Z,99946.81
2023-07-15T03:24:42.423Z,99946.33
2023-07-15T03:27:10.594Z,99948.66
2023-07-15T03:29:38.292Z,99953.05
2023-07-15T03:32:06.279Z,99944.55
2023-07-15T03:34:35.310Z,99945.08
2023-07-15T03:37:03.443Z,99943.67
2023-07-15T03:39:31.809Z,99940.26
2023-07-15T03:41:59.849Z,99937.67
2023-07-15T03:44:28.725Z,99943.24
2023-07-15T03:46:58.602Z,99942.15
2023-07-15T03:49:26.479Z,99944.06
2023-07-15T03:51:54.389Z,99948.40
2023-07-15T03:54:22.683Z,99945.66
2023-07-15T03:56:50.537Z,99941.90
2023-07-15T03:59:18.411Z,99942.73
2023-07-15T04:01:46.650Z,99943.73
2023-07-15T04:04:14.520Z,99942.23
2023-07-15T04:06:42.836Z,99946.16
2023-07-15T04:09:13.404Z,99945.77
2023-07-15T04:11:41.980Z,99951.13
2023-07-15T04:14:09.850Z,99951.23
2023-07-15T04:16:37.727Z,99950.23
2023-07-15T04:19:05.705Z,99952.33
2023-07-15T04:21:33.524Z,99954.70
2023-07-15T04:24:01.514Z,99953.29
2023-07-15T04:26:29.414Z,99959.52
2023-07-15T04:28:57.413Z,99964.16
2023-07-15T04:31:25.368Z,99960.81
2023-07-15T04:33:53.310Z,99964.95
2023-07-15T04:36:21.937Z,99966.44
2023-07-15T04:38:50.620Z,99969.42
2023-07-15T04:41:18.618Z,99972.99
2023-07-15T04:43:46.619Z,99974.85
2023-07-15T04:46:15.424Z,99973.42
2023-07-15T04:48:44.569Z,99974.98
2023-07-15T04:51:12.796Z,99976.98
2023-07-15T04:53:44.805Z,99980.88
2023-07-15T04:56:13.292Z,99979.18
2023-07-15T04:58:41.560Z,99978.56
2023-07-15T05:01:09.552Z,99971.66
2023-07-15T05:03:37.920Z,99970.98
2023-07-15T05:06:05.900Z,99967.38
2023-07-15T05:08:33.920Z,99969.83
2023-07-15T05:11:01.994Z,99967.77
2023-07-15T05:13:30.466Z,99972.67
2023-07-15T05:15:58.463Z,99975.01
2023-07-15T05:18:26.607Z,99979.11
2023-07-15T05:20:54.650Z,99975.86
2023-07-15T05:23:23.738Z,99973.30
2023-07-15T05:25:52.791Z,99975.82
2023-07-15T05:28:20.801Z,99973.98
2023-07-15T05:30:49.085Z,99978.04
2023-07-15T05:33:17.093Z,99976.81
2023-07-15T05:35:45.180Z,99975.82
2023-07-15T05:38:14.199Z,99974.90
2023-07-15T05:40:44.135Z,99974.95
2023-07-15T05:43:14.652Z,99976.60
2023-07-15T05:45:45.231Z,99980.52
2023-07-15T05:48:15.789Z,99978.48
2023-07-15T05:50:46.703Z,99977.80
2023-07-15T05:53:16.187Z,99977.31
2023-07-15T05:55:47.512Z,99978.81
2023-07-15T05:58:18.223Z,99979.83
2023-07-15T06:00:48.776Z,99979.45
2023-07-15T06:03:19.083Z,99975.05
2023-07-15T06:05:50.038Z,99975.35
2023-07-15T06:08:20.387Z,99979.96
2023-07-15T06:10:50.721Z,99980.39
2023-07-15T06:13:21.737Z,99977.45
2023-07-15T06:15:52.237Z,99978.06
2023-07-15T06:18:22.730Z,99976.06
2023-07-15T06:20:54.769Z,99974.48
2023-07-15T06:23:25.245Z,99978.39
2023-07-15T06:25:55.211Z,99977.80
2023-07-15T06:28:25.228Z,99977.16
2023-07-15T06:31:04.808Z,99979.91
2023-07-15T06:33:38.500Z,99976.79
2023-07-15T06:36:09.052Z,99977.29
2023-07-15T06:46:20.768Z,99982.16
2023-07-15T06:48:49.721Z,99982.27
2023-07-15T06:51:17.696Z,99986.73
2023-07-15T07:01:22.553Z,99997.48
2023-07-15T07:11:26.244Z,99998.47
2023-07-15T07:13:54.269Z,100000.07
2023-07-15T07:16:21.962Z,100000.85
2023-07-15T07:18:49.837Z,100002.02
2023-07-15T07:21:18.073Z,100001.90
2023-07-15T07:23:46.359Z,100002.81
2023-07-15T07:26:14.363Z,100002.95
2023-07-15T07:28:45.975Z,100002.52
2023-07-15T07:31:14.501Z,100004.09
2023-07-15T07:33:43.154Z,99998.98
2023-07-15T07:36:10.924Z,99996.84
2023-07-15T07:38:38.704Z,99999.90
2023-07-15T07:41:07.379Z,99999.36
2023-07-15T07:43:35.657Z,99997.88
2023-07-15T07:46:04.813Z,99998.70
2023-07-15T07:48:32.803Z,100003.35
2023-07-15T07:51:01.292Z,100002.48
2023-07-15T07:53:29.723Z,100001.98
2023-07-15T07:55:57.694Z,100000.67
2023-07-15T07:58:25.469Z,100002.38
2023-07-15T08:00:53.171Z,100007.23
2023-07-15T08:03:20.979Z,100004.70
2023-07-15T08:05:49.257Z,100006.40
2023-07-15T08:08:17.223Z,100010.02
2023-07-15T08:10:45.053Z,100005.17
2023-07-15T08:13:13.319Z,100008.70
2023-07-15T08:15:41.049Z,100009.59
2023-07-15T08:18:08.861Z,100005.55
2023-07-15T08:20:38.651Z,100002.71
2023-07-15T08:27:38.544Z,100004.70
2023-07-15T08:30:06.813Z,100004.30
2023-07-15T08:32:34.557Z,100006.48
2023-07-15T08:35:03.615Z,100008.10
2023-07-15T08:37:31.522Z,100004.98
2023-07-15T08:39:59.211Z,100004.27
2023-07-15T08:42:27.180Z,100002.86
2023-07-15T08:44:54.958Z,100002.38
2023-07-15T08:47:24.099Z,100002.71
2023-07-15T08:49:53.362Z,100000.85
2023-07-15T08:52:24.450Z,100003.45
2023-07-15T08:54:53.289Z,99999.52
2023-07-15T08:57:23.393Z,99993.41
2023-07-15T08:59:53.533Z,99993.23
2023-07-15T09:04:00.392Z,99998.97
2023-07-15T09:06:29.525Z,99998.77
2023-07-15T09:08:57.595Z,99999.21
2023-07-15T09:11:25.475Z,99999.52
2023-07-15T09:13:53.222Z,99991.17
2023-07-15T09:16:21.498Z,99990.33
2023-07-15T09:18:49.322Z,99998.87
2023-07-15T09:21:18.192Z,100001.33
2023-07-15T09:23:47.238Z,100005.17
2023-07-15T09:26:15.155Z,100002.34
2023-07-15T09:28:43.583Z,99996.14
2023-07-15T09:31:11.292Z,99998.03
2023-07-15T09:33:41.079Z,100007.48
2023-07-15T09:36:11.083Z,100011.77
2023-07-15T09:38:39.798Z,100009.08
2023-07-15T09:41:11.948Z,100009.38
2023-07-15T09:43:51.389Z,100002.69
2023-07-15T09:46:20.993Z,100011.77
2023-07-15T09:48:52.782Z,100013.38
2023-07-15T09:51:21.134Z,100011.99
2023-07-15T10:01:36.679Z,100003.34
2023-07-15T10:04:39.930Z,100007.00
2023-07-15T10:07:07.661Z,100003.61
2023-07-15T10:09:35.525Z,100004.30
2023-07-15T10:12:03.604Z,100008.38
2023-07-15T10:14:32.620Z,100003.04
2023-07-15T10:17:13.929Z,100001.97
2023-07-15T10:19:44.948Z,100003.13
2023-07-15T10:22:13.201Z,99999.98
2023-07-15T10:24:42.709Z,100003.52
2023-07-15T10:34:53.744Z,100000.29
2023-07-15T10:37:21.710Z,99995.39
2023-07-15T10:39:49.677Z,99994.59
2023-07-15T10:42:18.195Z,99992.26
2023-07-15T10:44:47.518Z,99987.07
2023-07-15T10:47:18.571Z,99992.19
2023-07-15T10:49:47.462Z,99990.47
2023-07-15T10:52:20.075Z,99991.31
2023-07-15T10:54:48.301Z,99987.84
2023-07-15T10:57:17.300Z,99988.16
2023-07-15T10:59:46.567Z,99983.40
2023-07-15T11:02:14.479Z,99974.24
2023-07-15T11:04:42.920Z,99979.38
2023-07-15T11:14:55.487Z,99983.82
2023-07-15T11:17:23.513Z,99987.67
2023-07-15T11:19:51.450Z,99987.40
2023-07-15T11:22:19.360Z,99986.54
2023-07-15T11:24:50.012Z,99981.67
2023-07-15T11:27:18.736Z,99978.75
2023-07-15T11:29:46.412Z,99981.08
2023-07-15T11:32:16.290Z,99980.23
2023-07-15T11:34:43.968Z,99983.14
2023-07-15T11:44:41.588Z,99982.73
2023-07-15T11:47:09.572Z,99982.98
2023-07-15T11:49:45.974Z,99982.69
2023-07-15T11:52:21.534Z,99977.50
2023-07-15T11:54:49.185Z,99979.86
2023-07-15T11:57:26.386Z,99979.73
2023-07-15T11:59:54.277Z,99981.75
2023-07-15T12:02:22.177Z,99978.28
2023-07-15T12:04:50.211Z,99973.67
2023-07-15T12:07:21.182Z,99971.13
2023-07-15T12:09:48.923Z,99967.23
2023-07-15T12:12:16.575Z,99967.18
2023-07-15T12:14:44.265Z,99966.98
2023-07-15T12:17:12.040Z,99958.48
2023-07-15T12:19:39.725Z,99956.94
2023-07-15T12:22:07.399Z,99957.75
2023-07-15T12:24:35.398Z,99955.31
2023-07-15T12:27:03.330Z,99954.36
2023-07-15T12:29:31.065Z,99956.65
2023-07-15T12:31:58.724Z,99955.83
2023-07-15T12:34:26.522Z,99949.80
2023-07-15T12:36:54.330Z,99951.60
2023-07-15T12:39:22.923Z,99955.23
2023-07-15T12:41:50.598Z,99955.85
2023-07-15T12:44:18.582Z,99956.48
2023-07-15T12:46:46.370Z,99952.05
2023-07-15T12:49:14.116Z,99949.92
2023-07-15T12:51:43.439Z,99944.43
2023-07-15T12:54:11.122Z,99942.80
2023-07-15T12:56:38.848Z,99939.48
2023-07-15T12:59:07.007Z,99937.20
2023-07-15T13:01:34.771Z,99938.31
2023-07-15T13:04:02.620Z,99942.62
2023-07-15T13:06:30.415Z,99941.81
2023-07-15T13:08:58.125Z,99939.50
2023-07-15T13:11:25.868Z,99944.20
2023-07-15T13:13:53.507Z,99944.84
2023-07-15T13:16:21.326Z,99942.33
2023-07-15T13:18:49.126Z,99938.83
2023-07-15T13:21:17.216Z,99933.68
2023-07-15T13:23:45.148Z,99943.16
2023-07-15T13:26:12.871Z,99941.77
2023-07-15T13:28:40.641Z,99941.33
2023-07-15T13:31:08.368Z,99941.46
2023-07-15T13:33:38.295Z,99934.04
2023-07-15T13:36:07.609Z,99930.98
2023-07-15T13:38:35.260Z,99926.61
2023-07-15T13:41:02.906Z,99929.48
2023-07-15T13:43:30.584Z,99929.96
2023-07-15T13:45:58.598Z,99930.71
2023-07-15T13:48:26.356Z,99925.60
2023-07-15T13:50:54.057Z,99923.46
2023-07-15T13:53:21.763Z,99924.30
2023-07-15T13:55:49.438Z,99926.86
2023-07-15T13:58:17.085Z,99921.45
2023-07-15T14:00:45.628Z,99920.60
2023-07-15T14:03:13.321Z,99918.80
2023-07-15T14:05:41.118Z,99911.69
2023-07-15T14:08:08.825Z,99909.84
2023-07-15T14:10:36.527Z,99908.58
2023-07-15T14:13:04.172Z,99907.98
2023-07-15T14:15:31.846Z,99909.02
2023-07-15T14:18:02.239Z,99904.52
2023-07-15T14:20:29.967Z,99906.61
2023-07-15T14:22:57.732Z,99907.69
2023-07-15T14:25:25.483Z,99905.09
2023-07-15T14:27:53.163Z,99905.63
2023-07-15T14:30:20.860Z,99903.92
2023-07-15T14:32:48.666Z,99902.75
2023-07-15T14:35:16.643Z,99912.45
2023-07-15T14:37:44.363Z,99908.27
2023-07-15T14:40:13.404Z,99908.63
2023-07-15T14:42:41.392Z,99910.45
2023-07-15T14:45:09.484Z,99909.85
2023-07-15T14:47:38.078Z,99912.65
2023-07-15T14:50:06.400Z,99917.96
2023-07-15T14:52:34.177Z,99916.55
2023-07-15T14:55:01.861Z,99916.48
2023-07-15T14:57:29.542Z,99917.11
2023-07-15T14:59:57.606Z,99912.39
2023-07-15T15:02:25.440Z,99914.23
2023-07-15T15:04:53.177Z,99917.42
2023-07-15T15:07:21.934Z,99915.77
2023-07-15T15:09:49.675Z,99917.61
2023-07-15T15:12:17.409Z,99912.60
2023-07-15T15:14:45.179Z,99912.98
2023-07-15T15:17:14.051Z,99914.57
2023-07-15T15:19:41.761Z,99914.39
2023-07-15T15:22:09.491Z,99920.38
2023-07-15T15:24:37.140Z,99917.58
2023-07-15T15:27:04.901Z,99913.88
2023-07-15T15:29:32.609Z,99925.15
2023-07-15T15:32:00.356Z,99924.25
2023-07-15T15:34:28.138Z,99924.64
2023-07-15T15:36:55.863Z,99926.55
2023-07-15T15:39:23.574Z,99927.15
2023-07-15T15:41:51.275Z,99928.69
2023-07-15T15:44:19.004Z,99929.78
2023-07-15T15:46:46.709Z,99931.63
2023-07-15T15:49:14.604Z,99931.54
2023-07-15T15:51:42.301Z,99932.43
2023-07-15T15:54:10.378Z,99938.66
2023-07-15T15:56:38.057Z,99939.27
2023-07-15T15:59:06.905Z,99938.11
2023-07-15T16:01:34.713Z,99939.13
2023-07-15T16:04:02.577Z,99938.99
2023-07-15T16:06:30.785Z,99946.69
2023-07-15T16:08:58.534Z,99943.82
2023-07-15T16:11:26.530Z,99947.73
2023-07-15T16:13:54.293Z,99946.23
2023-07-15T16:16:22.112Z,99952.89
2023-07-15T16:18:49.898Z,99951.86
2023-07-15T16:21:18.216Z,99956.98
2023-07-15T16:23:45.976Z,99957.23
2023-07-15T16:26:13.767Z,99958.39
2023-07-15T16:28:41.512Z,99958.10
2023-07-15T16:31:09.254Z,99961.27
2023-07-15T16:33:36.964Z,99964.98
2023-07-15T16:36:04.835Z,99971.80
2023-07-15T16:38:32.640Z,99971.84
2023-07-15T16:41:01.898Z,99976.27
2023-07-15T16:43:30.004Z,99981.63
2023-07-15T16:45:57.868Z,99972.88
2023-07-15T16:48:25.777Z,99975.14
2023-07-15T16:50:53.586Z,99974.79
2023-07-15T16:53:22.031Z,99972.48
2023-07-15T16:55:50.053Z,99977.38
2023-07-15T16:58:18.760Z,99976.96
2023-07-15T17:00:46.662Z,99980.27
2023-07-15T17:03:14.636Z,99982.60
2023-07-15T17:05:42.561Z,99987.77
2023-07-15T17:08:10.409Z,99989.29
2023-07-15T17:10:38.218Z,99991.48
2023-07-15T17:13:06.061Z,99993.77
2023-07-15T17:15:33.947Z,99995.20
2023-07-15T17:18:01.998Z,99993.73
2023-07-15T17:20:29.906Z,99995.75
2023-07-15T17:22:57.786Z,99995.63
2023-07-15T17:25:25.706Z,99996.91
2023-07-15T17:27:53.975Z,99995.48
2023-07-15T17:30:21.777Z,100000.95
2023-07-15T17:32:49.967Z,100000.36
2023-07-15T17:35:17.996Z,100000.23
2023-07-15T17:37:45.761Z,100001.77
2023-07-15T17:40:13.861Z,99997.18
2023-07-15T17:42:41.982Z,100003.31
2023-07-15T17:45:10.706Z,100005.50
2023-07-15T17:47:38.785Z,100006.30
2023-07-15T17:50:07.913Z,100007.23
2023-07-15T17:52:37.311Z,100008.65
2023-07-15T17:55:17.363Z,100017.41
2023-07-15T17:57:51.863Z,100015.98
2023-07-15T18:00:21.070Z,100014.01
2023-07-15T18:02:50.643Z,100019.67
2023-07-15T18:05:18.943Z,100020.29
2023-07-15T18:07:47.074Z,100028.59
2023-07-15T18:10:15.082Z,100028.00
2023-07-15T18:12:43.701Z,100031.64
2023-07-15T18:15:12.238Z,100032.66
2023-07-15T18:17:40.166Z,100033.54
2023-07-15T18:20:09.006Z,100039.30
2023-07-15T18:22:38.078Z,100037.06
2023-07-15T18:25:07.055Z,100042.97
2023-07-15T18:27:35.056Z,100045.02
2023-07-15T18:30:03.174Z,100045.39
2023-07-15T18:32:31.324Z,100047.98
2023-07-15T18:34:59.792Z,100052.79
2023-07-15T18:37:27.851Z,100051.87
2023-07-15T18:39:57.347Z,100055.69
2023-07-15T18:42:27.364Z,100057.02
2023-07-15T18:44:57.292Z,100060.04
2023-07-15T18:47:26.732Z,100068.10
2023-07-15T18:49:57.762Z,100065.95
2023-07-15T18:52:28.593Z,100070.91
2023-07-15T18:59:42.764Z,100076.36
2023-07-15T19:02:14.864Z,100078.96
2023-07-15T19:04:46.762Z,100079.91
2023-07-15T19:07:17.550Z,100079.04
2023-07-15T19:09:48.176Z,100085.58
2023-07-15T19:12:18.837Z,100087.11
2023-07-15T19:14:49.284Z,100087.43
2023-07-15T19:17:19.245Z,100088.14
2023-07-15T19:19:48.801Z,100086.88
2023-07-15T19:22:19.302Z,100089.73
2023-07-15T19:24:49.372Z,100095.03
2023-07-15T19:27:19.862Z,100094.92
2023-07-15T19:34:33.900Z,100096.18
2023-07-15T19:37:04.362Z,100099.61
2023-07-15T19:46:17.488Z,100104.27
2023-07-15T19:48:46.962Z,100110.70
2023-07-15T19:51:14.768Z,100113.31
2023-07-15T19:53:43.530Z,100111.37
2023-07-15T19:56:11.420Z,100116.18
2023-07-15T20:05:18.760Z,100119.17
2023-07-15T20:07:46.416Z,100118.24
2023-07-15T20:10:13.295Z,100118.06
2023-07-15T20:12:41.335Z,100117.98
2023-07-15T20:15:09.292Z,100120.77
2023-07-15T20:17:36.356Z,100121.10
2023-07-15T20:20:04.641Z,100119.95
2023-07-15T20:22:32.053Z,100122.81
2023-07-15T20:24:59.350Z,100122.01
2023-07-15T20:27:26.475Z,100124.09
2023-07-15T20:29:53.549Z,100126.94
2023-07-15T20:32:22.068Z,100130.44
2023-07-15T20:34:49.176Z,100132.56
2023-07-15T20:37:16.237Z,100133.15
2023-07-15T20:39:43.178Z,100130.94
2023-07-15T20:42:11.051Z,100130.80
2023-07-15T20:44:38.404Z,100128.52
2023-07-15T20:47:06.459Z,100128.73
2023-07-15T20:49:33.502Z,100128.55
2023-07-15T20:52:01.187Z,100129.41
2023-07-15T20:54:28.224Z,100128.71
2023-07-15T20:56:55.744Z,100128.07
2023-07-15T20:59:23.027Z,100127.52
2023-07-15T21:01:50.416Z,100127.48
2023-07-15T21:04:17.757Z,100126.04
2023-07-15T21:06:44.997Z,100125.81
2023-07-15T21:09:12.247Z,100124.05
2023-07-15T21:11:39.764Z,100128.20
2023-07-15T21:14:07.164Z,100129.41
2023-07-15T21:16:34.553Z,100130.88
2023-07-15T21:19:01.884Z,100136.27
2023-07-15T21:22:10.916Z,100145.07
2023-07-15T21:24:38.778Z,100137.53
2023-07-15T21:27:07.084Z,100139.25
2023-07-15T21:29:35.400Z,100140.33
2023-07-15T21:32:05.077Z,100139.09
2023-07-15T21:34:33.587Z,100139.29
2023-07-15T21:37:01.275Z,100140.95
2023-07-15T21:39:29.440Z,100141.33
2023-07-15T21:41:57.163Z,100136.67
2023-07-15T21:44:24.893Z,100136.23
2023-07-15T21:46:52.661Z,100138.36
2023-07-15T21:49:20.406Z,100140.48
2023-07-15T21:51:48.094Z,100142.02
2023-07-15T21:54:15.835Z,100140.44
2023-07-15T21:56:43.543Z,100137.39
2023-07-15T21:59:11.188Z,100137.09
2023-07-15T22:01:38.933Z,100141.76
2023-07-15T22:04:06.672Z,100143.45
2023-07-15T22:06:34.399Z,100145.03
2023-07-15T22:09:02.719Z,100147.48
2023-07-15T22:11:30.419Z,100147.23
2023-07-15T22:13:58.150Z,100149.63
2023-07-15T22:16:25.857Z,100150.83
2023-07-15T22:18:53.878Z,100148.41
2023-07-15T22:21:21.568Z,100145.04
2023-07-15T22:23:49.539Z,100151.77
2023-07-15T22:26:17.643Z,100153.02
2023-07-15T22:28:45.694Z,100156.07
2023-07-15T22:31:13.680Z,100155.61
2023-07-15T22:33:41.448Z,100161.23
2023-07-15T22:36:09.180Z,100163.71
2023-07-15T22:38:36.875Z,100163.00
2023-07-15T22:41:04.582Z,100167.05
2023-07-15T22:43:32.246Z,100162.42
2023-07-15T22:45:59.916Z,100163.80
2023-07-15T22:48:28.219Z,100162.59
2023-07-15T22:50:55.965Z,100163.75
2023-07-15T22:53:24.614Z,100162.35
2023-07-15T22:55:52.409Z,100160.82
2023-07-15T22:58:20.199Z,100162.30
2023-07-15T23:00:47.926Z,100164.75
2023-07-15T23:03:15.716Z,100162.48
2023-07-15T23:05:43.484Z,100160.41
2023-07-15T23:08:11.186Z,100158.85
2023-07-15T23:10:40.479Z,100160.77
2023-07-15T23:13:08.192Z,100162.05
2023-07-15T23:15:35.896Z,100151.16
2023-07-15T23:18:03.720Z,100153.60
2023-07-15T23:20:31.473Z,100154.20
2023-07-15T23:23:14.546Z,100154.94
2023-07-15T23:25:43.998Z,100151.26
2023-07-15T23:28:11.786Z,100147.25
2023-07-15T23:30:39.473Z,100149.59
2023-07-15T23:33:07.280Z,100152.67
2023-07-15T23:35:40.424Z,100152.29
2023-07-15T23:38:08.638Z,100151.70
2023-07-15T23:40:36.542Z,100149.35
2023-07-15T23:43:04.299Z,100153.35
2023-07-15T23:45:33.112Z,100156.73
2023-07-15T23:48:00.925Z,100153.75
2023-07-15T23:50:28.739Z,100153.52
2023-07-15T23:52:56.423Z,100154.89
2023-07-15T23:55:24.138Z,100153.95
2023-07-15T23:57:51.911Z,100151.45
